createdAt,value
2023-03-11T00:01:16.306Z,98275.00
2023-03-11T00:03:43.085Z,98264.00
2023-03-11T00:06:09.942Z,98261.00
2023-03-11T00:08:36.892Z,98268.00
2023-03-11T00:11:03.908Z,98272.00
2023-03-11T00:13:31.200Z,98279.00
2023-03-11T00:15:59.943Z,98257.00
2023-03-11T00:18:31.538Z,98254.00
2023-03-11T00:21:00.708Z,98255.00
2023-03-11T00:23:28.637Z,98245.00
2023-03-11T00:25:55.831Z,98242.00
2023-03-11T00:28:25.436Z,98232.00
2023-03-11T00:30:52.596Z,98234.00
2023-03-11T00:33:19.454Z,98246.00
2023-03-11T00:35:46.338Z,98244.00
2023-03-11T00:38:16.147Z,98252.00
2023-03-11T00:40:47.762Z,98257.00
2023-03-11T00:43:16.075Z,98251.00
2023-03-11T00:45:43.064Z,98251.00
2023-03-11T00:48:10.000Z,98244.00
2023-03-11T00:50:37.749Z,98241.00
2023-03-11T00:53:06.462Z,98248.00
2023-03-11T00:55:35.438Z,98244.00
2023-03-11T00:58:06.654Z,98254.00
2023-03-11T01:00:34.922Z,98241.00
2023-03-11T01:03:06.494Z,98236.00
2023-03-11T01:05:38.796Z,98229.00
2023-03-11T01:08:09.042Z,98231.00
2023-03-11T01:10:36.706Z,98245.00
2023-03-11T01:13:05.324Z,98274.00
2023-03-11T01:15:36.723Z,98278.00
2023-03-11T01:18:09.423Z,98279.00
2023-03-11T01:20:46.349Z,98275.00
2023-03-11T01:23:15.516Z,98272.00
2023-03-11T01:25:44.912Z,98278.00
2023-03-11T01:28:14.500Z,98264.00
2023-03-11T01:30:46.526Z,98285.00
2023-03-11T01:33:20.626Z,98295.00
2023-03-11T01:35:51.745Z,98298.00
2023-03-11T01:38:21.387Z,98289.00
2023-03-11T01:40:54.872Z,98298.00
2023-03-11T01:43:56.937Z,98280.00
2023-03-11T01:47:00.176Z,98271.00
2023-03-11T01:49:27.675Z,98240.00
2023-03-11T01:52:07.773Z,98251.00
2023-03-11T01:54:39.730Z,98255.00
2023-03-11T01:57:11.509Z,98261.00
2023-03-11T01:59:50.927Z,98263.00
2023-03-11T02:02:43.105Z,98265.00
2023-03-11T02:05:10.318Z,98260.00
2023-03-11T02:07:40.289Z,98268.00
2023-03-11T02:10:08.993Z,98254.00
2023-03-11T02:12:38.065Z,98259.00
2023-03-11T02:15:08.534Z,98260.00
2023-03-11T02:17:38.983Z,98274.00
2023-03-11T02:20:19.740Z,98280.00
2023-03-11T02:22:48.226Z,98292.00
2023-03-11T02:26:01.460Z,98286.00
2023-03-11T02:28:31.887Z,98282.00
2023-03-11T02:30:59.156Z,98294.00
2023-03-11T02:33:32.537Z,98302.00
2023-03-11T02:35:59.501Z,98296.00
2023-03-11T02:38:26.644Z,98300.00
2023-03-11T02:40:57.788Z,98299.00
2023-03-11T02:43:38.495Z,98306.00
2023-03-11T02:46:10.168Z,98307.00
2023-03-11T02:48:38.899Z,98281.00
2023-03-11T02:51:05.923Z,98270.00
2023-03-11T02:53:41.457Z,98256.00
2023-03-11T02:56:08.324Z,98245.00
2023-03-11T02:58:35.136Z,98243.00
2023-03-11T03:01:01.998Z,98251.00
2023-03-11T03:03:28.878Z,98270.00
2023-03-11T03:05:55.907Z,98282.00
2023-03-11T03:08:22.765Z,98269.00
2023-03-11T03:10:49.733Z,98255.00
2023-03-11T03:13:16.550Z,98249.00
2023-03-11T03:15:43.487Z,98254.00
2023-03-11T03:18:10.382Z,98250.00
2023-03-11T03:20:37.374Z,98259.00
2023-03-11T03:23:04.218Z,98261.00
2023-03-11T03:25:31.330Z,98262.00
2023-03-11T03:27:58.388Z,98258.00
2023-03-11T03:30:25.225Z,98264.00
2023-03-11T03:32:52.155Z,98268.00
2023-03-11T03:35:20.164Z,98271.00
2023-03-11T03:37:47.179Z,98285.00
2023-03-11T03:40:14.368Z,98297.00
2023-03-11T03:42:41.292Z,98302.00
2023-03-11T03:45:09.594Z,98313.00
2023-03-11T03:47:37.130Z,98313.00
2023-03-11T03:50:08.247Z,98319.00
2023-03-11T03:52:37.153Z,98318.00
2023-03-11T03:55:06.396Z,98305.00
2023-03-11T03:57:33.461Z,98312.00
2023-03-11T04:00:00.288Z,98310.00
2023-03-11T04:02:27.187Z,98314.00
2023-03-11T04:04:54.187Z,98308.00
2023-03-11T04:07:20.996Z,98300.00
2023-03-11T04:09:47.821Z,98290.00
2023-03-11T04:12:17.427Z,98291.00
2023-03-11T04:14:44.975Z,98295.00
2023-03-11T04:17:14.417Z,98304.00
2023-03-11T04:19:41.474Z,98298.00
2023-03-11T04:22:08.700Z,98301.00
2023-03-11T04:24:35.611Z,98303.00
2023-03-11T04:27:02.451Z,98300.00
2023-03-11T04:29:29.339Z,98304.00
2023-03-11T04:31:56.156Z,98315.00
2023-03-11T04:34:23.385Z,98320.00
2023-03-11T04:36:54.892Z,98317.00
2023-03-11T04:39:22.034Z,98327.00
2023-03-11T04:41:49.085Z,98330.00
2023-03-11T04:44:16.237Z,98337.00
2023-03-11T04:46:43.307Z,98343.00
2023-03-11T04:49:10.368Z,98348.00
2023-03-11T04:51:37.486Z,98344.00
2023-03-11T04:54:04.793Z,98339.00
2023-03-11T04:56:31.678Z,98347.00
2023-03-11T04:58:58.510Z,98352.00
2023-03-11T05:01:25.778Z,98352.00
2023-03-11T05:03:52.874Z,98347.00
2023-03-11T05:06:19.739Z,98362.00
2023-03-11T05:08:46.542Z,98351.00
2023-03-11T05:11:13.362Z,98339.00
2023-03-11T05:13:40.204Z,98325.00
2023-03-11T05:16:07.529Z,98329.00
2023-03-11T05:18:34.393Z,98316.00
2023-03-11T05:21:01.268Z,98316.00
2023-03-11T05:23:28.061Z,98324.00
2023-03-11T05:25:54.917Z,98322.00
2023-03-11T05:28:24.435Z,98323.00
2023-03-11T05:30:51.598Z,98336.00
2023-03-11T05:33:18.494Z,98331.00
2023-03-11T05:35:45.492Z,98334.00
2023-03-11T05:38:12.465Z,98333.00
2023-03-11T05:40:39.287Z,98338.00
2023-03-11T05:43:06.175Z,98340.00
2023-03-11T05:45:33.088Z,98338.00
2023-03-11T05:48:00.028Z,98339.00
2023-03-11T05:50:26.872Z,98336.00
2023-03-11T05:52:53.754Z,98340.00
2023-03-11T05:55:20.548Z,98341.00
2023-03-11T05:57:50.442Z,98335.00
2023-03-11T06:00:19.028Z,98332.00
2023-03-11T06:02:45.921Z,98331.00
2023-03-11T06:05:13.870Z,98346.00
2023-03-11T06:07:41.135Z,98334.00
2023-03-11T06:10:09.354Z,98338.00
2023-03-11T06:12:36.527Z,98356.00
2023-03-11T06:15:03.770Z,98350.00
2023-03-11T06:17:31.060Z,98355.00
2023-03-11T06:19:58.199Z,98362.00
2023-03-11T06:44:47.323Z,98394.00
2023-03-11T06:53:22.006Z,98398.00
2023-03-11T06:56:42.637Z,98409.00
2023-03-11T07:03:09.621Z,98400.00
2023-03-11T07:06:06.502Z,98423.00
2023-03-11T07:08:59.590Z,98412.00
2023-03-11T07:14:39.662Z,98418.00
2023-03-11T07:17:06.643Z,98426.00
2023-03-11T07:22:51.817Z,98424.00
2023-03-11T07:26:20.889Z,98437.00
2023-03-11T07:29:04.522Z,98428.00
2023-03-11T07:32:43.249Z,98435.00
2023-03-11T07:35:16.463Z,98432.00
2023-03-11T07:53:39.300Z,98456.00
2023-03-11T07:56:38.197Z,98443.00
2023-03-11T07:59:27.553Z,98450.00
2023-03-11T08:04:46.196Z,98448.00
2023-03-11T08:07:13.215Z,98452.00
2023-03-11T08:10:18.665Z,98448.00
2023-03-11T08:12:52.516Z,98459.00
2023-03-11T08:15:22.078Z,98459.00
2023-03-11T08:18:05.631Z,98464.00
2023-03-11T08:24:47.163Z,98463.00
2023-03-11T08:35:12.353Z,98461.00
2023-03-11T08:38:21.715Z,98471.00
2023-03-11T08:41:26.035Z,98468.00
2023-03-11T08:54:13.687Z,98480.00
2023-03-11T08:56:40.632Z,98477.00
2023-03-11T08:59:08.559Z,98482.00
2023-03-11T09:01:35.541Z,98472.00
2023-03-11T09:04:02.430Z,98481.00
2023-03-11T09:06:30.627Z,98484.00
2023-03-11T09:08:58.093Z,98476.00
2023-03-11T09:11:25.051Z,98484.00
2023-03-11T09:13:52.266Z,98477.00
2023-03-11T09:16:23.934Z,98493.00
2023-03-11T09:18:51.906Z,98487.00
2023-03-11T09:21:19.932Z,98497.00
2023-03-11T09:23:48.277Z,98488.00
2023-03-11T09:26:16.443Z,98493.00
2023-03-11T09:28:43.696Z,98492.00
2023-03-11T09:31:11.544Z,98504.00
2023-03-11T09:33:41.958Z,98492.00
2023-03-11T09:36:13.965Z,98494.00
2023-03-11T09:38:41.937Z,98497.00
2023-03-11T09:41:17.979Z,98492.00
2023-03-11T09:44:17.303Z,98497.00
2023-03-11T09:47:21.004Z,98496.00
2023-03-11T09:50:20.658Z,98494.00
2023-03-11T09:53:04.880Z,98496.00
2023-03-11T09:55:49.259Z,98494.00
2023-03-11T09:58:38.038Z,98492.00
2023-03-11T10:01:28.047Z,98487.00
2023-03-11T10:04:00.859Z,98482.00
2023-03-11T10:06:31.673Z,98476.00
2023-03-11T10:09:29.294Z,98478.00
2023-03-11T10:12:17.732Z,98468.00
2023-03-11T10:15:27.770Z,98475.00
2023-03-11T10:18:23.223Z,98485.00
2023-03-11T10:21:11.743Z,98489.00
2023-03-11T10:24:01.146Z,98487.00
2023-03-11T10:26:41.616Z,98475.00
2023-03-11T10:29:28.495Z,98484.00
2023-03-11T10:32:20.596Z,98489.00
2023-03-11T10:34:55.176Z,98484.00
2023-03-11T10:37:48.269Z,98485.00
2023-03-11T10:40:24.914Z,98496.00
2023-03-11T10:43:53.228Z,98488.00
2023-03-11T10:49:40.360Z,98486.00
2023-03-11T10:52:48.449Z,98489.00
2023-03-11T10:55:44.076Z,98476.00
2023-03-11T10:58:38.111Z,98472.00
2023-03-11T11:10:00.345Z,98473.00
2023-03-11T11:22:30.351Z,98468.00
2023-03-11T11:25:05.699Z,98460.00
2023-03-11T11:28:29.814Z,98459.00
2023-03-11T11:32:36.402Z,98465.00
2023-03-11T11:35:15.373Z,98461.00
2023-03-11T11:40:59.651Z,98458.00
2023-03-11T11:44:03.929Z,98463.00
2023-03-11T11:47:17.466Z,98456.00
2023-03-11T11:50:38.536Z,98456.00
2023-03-11T11:53:23.454Z,98460.00
2023-03-11T11:55:53.889Z,98456.00
2023-03-11T11:58:22.618Z,98449.00
2023-03-11T12:01:19.165Z,98452.00
2023-03-11T12:04:12.936Z,98454.00
2023-03-11T12:07:03.748Z,98453.00
2023-03-11T12:10:22.338Z,98447.00
2023-03-11T12:13:24.576Z,98441.00
2023-03-11T12:16:18.088Z,98425.00
2023-03-11T12:19:13.136Z,98433.00
2023-03-11T12:22:32.365Z,98424.00
2023-03-11T12:25:09.973Z,98433.00
2023-03-11T12:27:51.681Z,98417.00
2023-03-11T12:30:33.917Z,98420.00
2023-03-11T12:33:11.374Z,98413.00
2023-03-11T12:35:39.010Z,98404.00
2023-03-11T12:38:21.425Z,98410.00
2023-03-11T12:41:04.171Z,98410.00
2023-03-11T12:43:34.381Z,98415.00
2023-03-11T12:46:10.250Z,98401.00
2023-03-11T12:49:08.495Z,98402.00
2023-03-11T12:51:37.502Z,98401.00
2023-03-11T12:54:40.528Z,98400.00
2023-03-11T12:57:16.358Z,98392.00
2023-03-11T12:59:43.102Z,98409.00
2023-03-11T13:02:09.860Z,98400.00
2023-03-11T13:05:17.491Z,98402.00
2023-03-11T13:07:55.470Z,98401.00
2023-03-11T13:10:43.080Z,98402.00
2023-03-11T13:13:42.564Z,98399.00
2023-03-11T13:16:12.603Z,98397.00
2023-03-11T13:18:44.975Z,98401.00
2023-03-11T13:21:30.494Z,98409.00
2023-03-11T13:24:30.082Z,98407.00
2023-03-11T13:27:01.378Z,98411.00
2023-03-11T13:30:04.327Z,98407.00
2023-03-11T13:33:17.324Z,98408.00
2023-03-11T13:36:18.363Z,98417.00
2023-03-11T13:39:13.787Z,98409.00
2023-03-11T13:41:45.858Z,98411.00
2023-03-11T13:44:45.550Z,98405.00
2023-03-11T13:47:39.153Z,98395.00
2023-03-11T13:50:30.154Z,98402.00
2023-03-11T13:53:18.604Z,98399.00
2023-03-11T13:55:47.887Z,98390.00
2023-03-11T13:58:17.324Z,98405.00
2023-03-11T14:00:57.002Z,98384.00
2023-03-11T14:03:34.906Z,98398.00
2023-03-11T14:06:31.750Z,98402.00
2023-03-11T14:09:10.590Z,98395.00
2023-03-11T14:11:58.586Z,98396.00
2023-03-11T14:14:50.558Z,98398.00
2023-03-11T14:17:35.161Z,98403.00
2023-03-11T14:20:19.113Z,98403.00
2023-03-11T14:22:50.396Z,98417.00
2023-03-11T14:25:27.286Z,98416.00
2023-03-11T14:28:06.054Z,98405.00
2023-03-11T14:30:35.148Z,98411.00
2023-03-11T14:33:22.346Z,98413.00
2023-03-11T14:36:14.174Z,98410.00
2023-03-11T14:38:44.461Z,98406.00
2023-03-11T14:41:14.607Z,98399.00
2023-03-11T14:43:48.306Z,98400.00
2023-03-11T14:46:29.428Z,98399.00
2023-03-11T14:49:00.145Z,98408.00
2023-03-11T14:54:38.907Z,98401.00
2023-03-11T15:00:53.694Z,98399.00
2023-03-11T15:03:31.984Z,98413.00
2023-03-11T15:06:17.711Z,98412.00
2023-03-11T15:09:08.089Z,98409.00
2023-03-11T15:11:59.649Z,98421.00
2023-03-11T15:14:49.692Z,98422.00
2023-03-11T15:17:42.963Z,98426.00
2023-03-11T15:20:35.376Z,98423.00
2023-03-11T15:41:07.551Z,98438.00
2023-03-11T15:51:25.663Z,98453.00
2023-03-11T15:56:07.248Z,98450.00
2023-03-11T15:57:29.773Z,98453.00
2023-03-11T16:00:08.035Z,98457.00
2023-03-11T16:03:16.637Z,98458.00
2023-03-11T16:06:08.349Z,98453.00
2023-03-11T16:12:40.152Z,98463.00
2023-03-11T16:15:36.074Z,98471.00
2023-03-11T16:18:26.981Z,98456.00
2023-03-11T16:21:44.030Z,98476.00
2023-03-11T16:31:29.579Z,98462.00
2023-03-11T16:38:30.642Z,98465.00
2023-03-11T16:42:00.497Z,98466.00
2023-03-11T16:51:29.568Z,98463.00
2023-03-11T16:53:56.469Z,98465.00
2023-03-11T17:02:38.482Z,98488.00
2023-03-11T17:05:07.995Z,98483.00
2023-03-11T17:07:37.511Z,98493.00
2023-03-11T17:10:06.938Z,98495.00
2023-03-11T17:12:33.831Z,98506.00
2023-03-11T17:19:46.789Z,98524.00
2023-03-11T17:53:37.726Z,98568.00
2023-03-11T17:55:23.194Z,98569.00
2023-03-11T17:57:52.369Z,98580.00
2023-03-11T18:00:22.844Z,98585.00
2023-03-11T18:02:51.396Z,98586.00
2023-03-11T18:05:20.158Z,98578.00
2023-03-11T18:07:47.485Z,98587.00
2023-03-11T18:10:16.028Z,98586.00
2023-03-11T18:12:47.310Z,98582.00
2023-03-11T18:15:22.520Z,98584.00
2023-03-11T18:17:51.989Z,98590.00
2023-03-11T18:20:19.091Z,98588.00
2023-03-11T18:22:49.384Z,98581.00
2023-03-11T18:25:18.746Z,98594.00
2023-03-11T18:27:45.797Z,98599.00
2023-03-11T18:30:19.681Z,98598.00
2023-03-11T18:32:46.708Z,98595.00
2023-03-11T18:35:14.256Z,98600.00
2023-03-11T18:37:41.106Z,98606.00
2023-03-11T18:40:10.691Z,98606.00
2023-03-11T18:42:37.633Z,98608.00
2023-03-11T18:45:15.363Z,98612.00
2023-03-11T18:47:50.178Z,98617.00
2023-03-11T18:54:00.354Z,98631.00
2023-03-11T18:56:39.408Z,98626.00
2023-03-11T18:59:28.909Z,98627.00
2023-03-11T19:02:12.196Z,98652.00
2023-03-11T19:04:42.408Z,98652.00
2023-03-11T19:07:12.329Z,98642.00
2023-03-11T19:10:07.787Z,98648.00
2023-03-11T19:12:37.118Z,98652.00
2023-03-11T19:15:26.326Z,98656.00
2023-03-11T19:18:06.137Z,98665.00
2023-03-11T19:20:36.499Z,98651.00
2023-03-11T19:23:03.404Z,98662.00
2023-03-11T19:25:30.633Z,98656.00
2023-03-11T19:28:03.562Z,98664.00
2023-03-11T19:30:30.478Z,98668.00
2023-03-11T19:32:57.390Z,98682.00
2023-03-11T19:35:24.507Z,98677.00
2023-03-11T19:37:56.721Z,98667.00
2023-03-11T19:40:26.602Z,98675.00
2023-03-11T19:42:53.568Z,98670.00
2023-03-11T19:45:20.515Z,98668.00
2023-03-11T19:47:50.848Z,98675.00
2023-03-11T19:50:19.251Z,98679.00
2023-03-11T19:52:46.263Z,98686.00
2023-03-11T19:55:13.290Z,98687.00
2023-03-11T19:57:40.271Z,98691.00
2023-03-11T20:00:09.455Z,98710.00
2023-03-11T20:02:36.674Z,98692.00
2023-03-11T20:05:03.916Z,98704.00
2023-03-11T20:07:32.782Z,98705.00
2023-03-11T20:09:59.844Z,98714.00
2023-03-11T20:12:26.895Z,98703.00
2023-03-11T20:14:53.969Z,98703.00
2023-03-11T20:17:20.868Z,98716.00
2023-03-11T20:19:47.766Z,98718.00
2023-03-11T20:22:15.900Z,98702.00
2023-03-11T20:24:44.766Z,98716.00
2023-03-11T20:27:11.744Z,98720.00
2023-03-11T20:29:38.712Z,98710.00
2023-03-11T20:32:05.792Z,98711.00
2023-03-11T20:34:34.712Z,98724.00
2023-03-11T20:37:01.698Z,98715.00
2023-03-11T20:39:31.687Z,98725.00
2023-03-11T20:41:58.911Z,98722.00
2023-03-11T20:44:25.933Z,98721.00
2023-03-11T20:46:54.822Z,98723.00
2023-03-11T20:49:22.088Z,98732.00
2023-03-11T20:51:50.679Z,98742.00
2023-03-11T20:54:20.539Z,98729.00
2023-03-11T20:56:49.169Z,98727.00
2023-03-11T20:59:16.933Z,98736.00
2023-03-11T21:01:44.713Z,98741.00
2023-03-11T21:04:12.356Z,98746.00
2023-03-11T21:06:41.133Z,98738.00
2023-03-11T21:09:13.833Z,98741.00
2023-03-11T21:11:41.759Z,98742.00
2023-03-11T21:14:10.264Z,98742.00
2023-03-11T21:16:37.875Z,98749.00
2023-03-11T21:19:05.496Z,98743.00
2023-03-11T21:21:32.772Z,98732.00
2023-03-11T21:23:59.746Z,98743.00
2023-03-11T21:26:26.703Z,98746.00
2023-03-11T21:28:54.985Z,98749.00
2023-03-11T21:31:28.610Z,98749.00
2023-03-11T21:33:58.813Z,98747.00
2023-03-11T21:36:25.882Z,98741.00
2023-03-11T21:38:52.970Z,98746.00
2023-03-11T21:41:26.017Z,98745.00
2023-03-11T21:43:55.576Z,98758.00
2023-03-11T21:46:27.844Z,98754.00
2023-03-11T21:48:55.806Z,98758.00
2023-03-11T21:51:23.645Z,98770.00
2023-03-11T21:53:51.112Z,98767.00
2023-03-11T21:56:18.487Z,98771.00
2023-03-11T21:58:45.472Z,98763.00
2023-03-11T22:01:13.213Z,98761.00
2023-03-11T22:03:40.959Z,98766.00
2023-03-11T22:06:11.511Z,98774.00
2023-03-11T22:08:38.686Z,98775.00
2023-03-11T22:11:17.447Z,98762.00
2023-03-11T22:13:51.031Z,98775.00
2023-03-11T22:16:20.802Z,98770.00
2023-03-11T22:18:48.916Z,98773.00
2023-03-11T22:21:17.451Z,98774.00
2023-03-11T22:23:45.407Z,98769.00
2023-03-11T22:26:12.770Z,98766.00
2023-03-11T22:28:39.805Z,98766.00
2023-03-11T22:31:14.032Z,98769.00
2023-03-11T22:33:41.457Z,98760.00
2023-03-11T22:36:09.437Z,98771.00
2023-03-11T22:38:37.464Z,98767.00
2023-03-11T22:41:07.628Z,98778.00
2023-03-11T22:43:37.260Z,98788.00
2023-03-11T22:46:05.802Z,98792.00
2023-03-11T22:48:34.444Z,98780.00
2023-03-11T22:51:01.950Z,98780.00
2023-03-11T22:53:29.172Z,98784.00
2023-03-11T22:55:56.030Z,98785.00
2023-03-11T22:58:23.164Z,98793.00
2023-03-11T23:00:50.073Z,98791.00
2023-03-11T23:03:17.040Z,98808.00
2023-03-11T23:05:45.817Z,98806.00
2023-03-11T23:08:16.909Z,98807.00
2023-03-11T23:10:47.260Z,98815.00
2023-03-11T23:13:14.777Z,98812.00
2023-03-11T23:15:44.590Z,98820.00
2023-03-11T23:18:12.508Z,98820.00
2023-03-11T23:20:42.217Z,98817.00
2023-03-11T23:23:10.655Z,98824.00
2023-03-11T23:25:39.178Z,98811.00
2023-03-11T23:28:08.043Z,98818.00
2023-03-11T23:30:36.086Z,98823.00
2023-03-11T23:33:03.185Z,98821.00
2023-03-11T23:35:31.277Z,98816.00
2023-03-11T23:37:58.561Z,98826.00
2023-03-11T23:40:25.523Z,98816.00
2023-03-11T23:42:52.687Z,98819.00
2023-03-11T23:45:19.724Z,98825.00
2023-03-11T23:47:46.731Z,98805.00
2023-03-11T23:50:13.744Z,98815.00
2023-03-11T23:52:40.619Z,98801.00
2023-03-11T23:55:08.521Z,98800.00
2023-03-11T23:57:38.697Z,98794.00
